sensor_id;sensor_type;location;lat;lon;timestamp;pressure;altitude;pressure_sealevel;temperature;humidity
64080;BME280;51042;49.696;10.808;2023-05-29T00:00:20;98567.75;;;13.38;66.27
64080;BME280;51042;49.696;10.808;2023-05-29T00:02:46;98575.41;;;13.34;68.77
64080;BME280;51042;49.696;10.808;2023-05-29T00:05:15;98574.88;;;13.27;69.35
64080;BME280;51042;49.696;10.808;2023-05-29T00:07:41;98582.03;;;13.24;68.98
64080;BME280;51042;49.696;10.808;2023-05-29T00:10:07;98572.50;;;13.16;68.55
64080;BME280;51042;49.696;10.808;2023-05-29T00:12:35;98578.22;;;13.09;68.83
64080;BME280;51042;49.696;10.808;2023-05-29T00:15:00;98564.91;;;13.07;67.86
64080;BME280;51042;49.696;10.808;2023-05-29T00:17:28;98579.00;;;13.09;69.31
64080;BME280;51042;49.696;10.808;2023-05-29T00:19:54;98572.34;;;12.98;69.54
64080;BME280;51042;49.696;10.808;2023-05-29T00:22:19;98570.69;;;12.88;70.81
64080;BME280;51042;49.696;10.808;2023-05-29T00:24:45;98564.00;;;12.76;70.68
64080;BME280;51042;49.696;10.808;2023-05-29T00:27:10;98562.47;;;12.75;71.55
64080;BME280;51042;49.696;10.808;2023-05-29T00:29:37;98561.06;;;12.71;70.62
64080;BME280;51042;49.696;10.808;2023-05-29T00:32:03;98557.22;;;12.68;72.31
64080;BME280;51042;49.696;10.808;2023-05-29T00:34:29;98564.06;;;12.63;72.09
64080;BME280;51042;49.696;10.808;2023-05-29T00:36:55;98566.59;;;12.58;72.24
64080;BME280;51042;49.696;10.808;2023-05-29T00:39:20;98562.75;;;12.55;72.02
64080;BME280;51042;49.696;10.808;2023-05-29T00:41:45;98562.63;;;12.59;71.91
64080;BME280;51042;49.696;10.808;2023-05-29T00:44:15;98569.81;;;12.56;71.21
64080;BME280;51042;49.696;10.808;2023-05-29T00:46:41;98568.06;;;12.50;71.77
64080;BME280;51042;49.696;10.808;2023-05-29T00:49:06;98562.00;;;12.42;71.35
64080;BME280;51042;49.696;10.808;2023-05-29T00:51:31;98562.78;;;12.43;71.26
64080;BME280;51042;49.696;10.808;2023-05-29T00:53:57;98560.91;;;12.40;70.04
64080;BME280;51042;49.696;10.808;2023-05-29T00:56:23;98558.16;;;12.40;70.97
64080;BME280;51042;49.696;10.808;2023-05-29T00:58:49;98557.84;;;12.38;74.20
64080;BME280;51042;49.696;10.808;2023-05-29T01:01:19;98565.56;;;12.30;74.22
64080;BME280;51042;49.696;10.808;2023-05-29T01:03:49;98567.66;;;12.26;72.70
64080;BME280;51042;49.696;10.808;2023-05-29T01:06:15;98566.13;;;12.25;73.87
64080;BME280;51042;49.696;10.808;2023-05-29T01:08:40;98570.28;;;12.17;74.21
64080;BME280;51042;49.696;10.808;2023-05-29T01:11:12;98576.34;;;12.12;74.37
64080;BME280;51042;49.696;10.808;2023-05-29T01:13:43;98577.69;;;12.07;76.80
64080;BME280;51042;49.696;10.808;2023-05-29T01:16:20;98584.81;;;12.05;78.63
64080;BME280;51042;49.696;10.808;2023-05-29T01:19:00;98585.94;;;12.07;81.93
64080;BME280;51042;49.696;10.808;2023-05-29T01:21:55;98583.84;;;12.11;81.21
64080;BME280;51042;49.696;10.808;2023-05-29T01:24:49;98585.03;;;12.10;81.85
64080;BME280;51042;49.696;10.808;2023-05-29T01:27:23;98587.91;;;12.07;80.16
64080;BME280;51042;49.696;10.808;2023-05-29T01:29:51;98573.50;;;12.03;80.30
64080;BME280;51042;49.696;10.808;2023-05-29T01:32:17;98578.03;;;11.97;79.12
64080;BME280;51042;49.696;10.808;2023-05-29T01:34:43;98574.94;;;11.95;81.75
64080;BME280;51042;49.696;10.808;2023-05-29T01:37:08;98575.69;;;11.95;80.97
64080;BME280;51042;49.696;10.808;2023-05-29T01:39:33;98578.31;;;11.86;82.16
64080;BME280;51042;49.696;10.808;2023-05-29T01:42:00;98571.94;;;11.76;80.43
64080;BME280;51042;49.696;10.808;2023-05-29T01:44:27;98572.47;;;11.71;78.88
64080;BME280;51042;49.696;10.808;2023-05-29T01:46:54;98568.59;;;11.69;77.66
64080;BME280;51042;49.696;10.808;2023-05-29T01:49:25;98572.66;;;11.64;77.49
64080;BME280;51042;49.696;10.808;2023-05-29T01:51:52;98564.84;;;11.63;79.60
64080;BME280;51042;49.696;10.808;2023-05-29T01:54:18;98558.56;;;11.62;79.29
64080;BME280;51042;49.696;10.808;2023-05-29T01:56:44;98569.56;;;11.62;78.76
64080;BME280;51042;49.696;10.808;2023-05-29T01:59:10;98559.81;;;11.61;78.64
64080;BME280;51042;49.696;10.808;2023-05-29T02:01:41;98553.63;;;11.57;78.86
64080;BME280;51042;49.696;10.808;2023-05-29T02:04:06;98551.78;;;11.54;78.69
64080;BME280;51042;49.696;10.808;2023-05-29T02:06:32;98550.66;;;11.52;78.56
64080;BME280;51042;49.696;10.808;2023-05-29T02:08:58;98552.81;;;11.44;79.19
64080;BME280;51042;49.696;10.808;2023-05-29T02:11:23;98548.34;;;11.37;77.69
64080;BME280;51042;49.696;10.808;2023-05-29T02:13:50;98547.66;;;11.33;80.62
64080;BME280;51042;49.696;10.808;2023-05-29T02:16:16;98557.19;;;11.29;79.99
64080;BME280;51042;49.696;10.808;2023-05-29T02:18:42;98557.97;;;11.29;81.40
64080;BME280;51042;49.696;10.808;2023-05-29T02:21:08;98558.84;;;11.26;81.33
64080;BME280;51042;49.696;10.808;2023-05-29T02:23:33;98556.44;;;11.28;81.16
64080;BME280;51042;49.696;10.808;2023-05-29T02:25:59;98556.44;;;11.28;79.91
64080;BME280;51042;49.696;10.808;2023-05-29T02:28:24;98555.34;;;11.26;78.76
64080;BME280;51042;49.696;10.808;2023-05-29T02:30:50;98546.09;;;11.20;80.20
64080;BME280;51042;49.696;10.808;2023-05-29T02:33:16;98551.78;;;11.13;82.10
64080;BME280;51042;49.696;10.808;2023-05-29T02:35:41;98550.44;;;11.04;83.19
64080;BME280;51042;49.696;10.808;2023-05-29T02:38:06;98541.59;;;10.97;82.90
64080;BME280;51042;49.696;10.808;2023-05-29T02:40:31;98549.94;;;10.93;84.20
64080;BME280;51042;49.696;10.808;2023-05-29T02:42:57;98554.66;;;10.93;83.49
64080;BME280;51042;49.696;10.808;2023-05-29T02:45:22;98557.06;;;10.91;84.50
64080;BME280;51042;49.696;10.808;2023-05-29T02:47:47;98551.25;;;10.89;83.89
64080;BME280;51042;49.696;10.808;2023-05-29T02:50:13;98554.44;;;10.87;87.34
64080;BME280;51042;49.696;10.808;2023-05-29T02:52:39;98559.91;;;10.87;90.18
64080;BME280;51042;49.696;10.808;2023-05-29T02:55:05;98565.84;;;10.86;88.44
64080;BME280;51042;49.696;10.808;2023-05-29T02:57:31;98560.78;;;10.84;92.94
64080;BME280;51042;49.696;10.808;2023-05-29T02:59:57;98555.50;;;10.77;92.96
64080;BME280;51042;49.696;10.808;2023-05-29T03:02:24;98557.88;;;10.75;92.76
64080;BME280;51042;49.696;10.808;2023-05-29T03:04:49;98557.22;;;10.71;95.63
64080;BME280;51042;49.696;10.808;2023-05-29T03:07:18;98557.75;;;10.66;92.27
64080;BME280;51042;49.696;10.808;2023-05-29T03:09:44;98559.47;;;10.60;92.91
64080;BME280;51042;49.696;10.808;2023-05-29T03:12:09;98557.91;;;10.59;92.53
64080;BME280;51042;49.696;10.808;2023-05-29T03:14:34;98562.72;;;10.55;92.00
64080;BME280;51042;49.696;10.808;2023-05-29T03:17:01;98558.88;;;10.52;89.72
64080;BME280;51042;49.696;10.808;2023-05-29T03:19:29;98556.47;;;10.54;87.15
64080;BME280;51042;49.696;10.808;2023-05-29T03:21:54;98559.13;;;10.58;86.44
64080;BME280;51042;49.696;10.808;2023-05-29T03:24:19;98552.44;;;10.59;86.71
64080;BME280;51042;49.696;10.808;2023-05-29T03:26:45;98560.13;;;10.64;86.67
64080;BME280;51042;49.696;10.808;2023-05-29T03:29:11;98552.56;;;10.68;88.39
64080;BME280;51042;49.696;10.808;2023-05-29T03:31:36;98550.31;;;10.79;84.81
64080;BME280;51042;49.696;10.808;2023-05-29T03:34:01;98551.34;;;10.85;85.44
64080;BME280;51042;49.696;10.808;2023-05-29T03:36:27;98548.16;;;10.87;87.08
64080;BME280;51042;49.696;10.808;2023-05-29T03:38:53;98550.47;;;10.88;87.08
64080;BME280;51042;49.696;10.808;2023-05-29T03:41:18;98555.88;;;10.92;85.26
64080;BME280;51042;49.696;10.808;2023-05-29T03:43:43;98551.72;;;11.00;86.33
64080;BME280;51042;49.696;10.808;2023-05-29T03:46:09;98563.72;;;11.06;82.64
64080;BME280;51042;49.696;10.808;2023-05-29T03:48:34;98560.34;;;11.15;84.18
64080;BME280;51042;49.696;10.808;2023-05-29T03:50:59;98560.69;;;11.17;83.91
64080;BME280;51042;49.696;10.808;2023-05-29T03:53:25;98566.06;;;11.20;83.38
64080;BME280;51042;49.696;10.808;2023-05-29T03:55:50;98562.81;;;11.25;82.62
64080;BME280;51042;49.696;10.808;2023-05-29T03:58:16;98566.09;;;11.33;83.38
64080;BME280;51042;49.696;10.808;2023-05-29T04:00:41;98580.06;;;11.38;82.95
64080;BME280;51042;49.696;10.808;2023-05-29T04:03:06;98580.66;;;11.46;79.27
64080;BME280;51042;49.696;10.808;2023-05-29T04:05:32;98570.13;;;11.57;80.12
64080;BME280;51042;49.696;10.808;2023-05-29T04:07:57;98578.28;;;11.61;79.21
64080;BME280;51042;49.696;10.808;2023-05-29T04:10:22;98579.50;;;11.72;79.17
64080;BME280;51042;49.696;10.808;2023-05-29T04:12:49;98588.47;;;11.89;79.53
64080;BME280;51042;49.696;10.808;2023-05-29T04:15:14;98586.00;;;12.89;77.97
64080;BME280;51042;49.696;10.808;2023-05-29T04:17:39;98598.78;;;14.44;69.97
64080;BME280;51042;49.696;10.808;2023-05-29T04:20:05;98595.91;;;15.75;64.29
64080;BME280;51042;49.696;10.808;2023-05-29T04:22:34;98595.84;;;16.92;59.24
64080;BME280;51042;49.696;10.808;2023-05-29T04:25:01;98600.63;;;17.69;56.81
64080;BME280;51042;49.696;10.808;2023-05-29T04:27:28;98604.59;;;18.12;54.36
64080;BME280;51042;49.696;10.808;2023-05-29T04:29:54;98606.03;;;18.71;52.33
64080;BME280;51042;49.696;10.808;2023-05-29T04:32:21;98614.09;;;19.50;50.32
64080;BME280;51042;49.696;10.808;2023-05-29T04:34:46;98610.44;;;20.22;48.59
64080;BME280;51042;49.696;10.808;2023-05-29T04:37:12;98611.94;;;20.97;47.05
64080;BME280;51042;49.696;10.808;2023-05-29T04:39:38;98616.72;;;21.44;45.72
64080;BME280;51042;49.696;10.808;2023-05-29T04:42:04;98618.22;;;21.40;45.23
64080;BME280;51042;49.696;10.808;2023-05-29T04:44:30;98631.38;;;21.34;45.20
64080;BME280;51042;49.696;10.808;2023-05-29T04:46:55;98630.72;;;21.02;45.68
64080;BME280;51042;49.696;10.808;2023-05-29T04:49:23;98632.97;;;21.57;44.20
64080;BME280;51042;49.696;10.808;2023-05-29T04:51:49;98631.88;;;21.27;44.61
64080;BME280;51042;49.696;10.808;2023-05-29T04:54:17;98642.63;;;21.45;44.50
64080;BME280;51042;49.696;10.808;2023-05-29T04:56:44;98639.63;;;21.87;43.44
64080;BME280;51042;49.696;10.808;2023-05-29T04:59:11;98640.97;;;22.09;42.99
64080;BME280;51042;49.696;10.808;2023-05-29T05:01:37;98641.72;;;22.54;42.52
64080;BME280;51042;49.696;10.808;2023-05-29T05:04:02;98644.25;;;22.74;41.85
64080;BME280;51042;49.696;10.808;2023-05-29T05:06:28;98647.31;;;23.50;40.60
64080;BME280;51042;49.696;10.808;2023-05-29T05:08:53;98656.44;;;23.62;40.29
64080;BME280;51042;49.696;10.808;2023-05-29T05:11:19;98655.47;;;23.48;39.82
64080;BME280;51042;49.696;10.808;2023-05-29T05:13:47;98651.38;;;23.49;40.61
64080;BME280;51042;49.696;10.808;2023-05-29T05:16:12;98661.16;;;24.19;38.99
64080;BME280;51042;49.696;10.808;2023-05-29T05:18:38;98661.72;;;24.48;39.02
64080;BME280;51042;49.696;10.808;2023-05-29T05:21:03;98667.78;;;25.06;38.12
64080;BME280;51042;49.696;10.808;2023-05-29T05:23:29;98670.47;;;25.60;36.95
64080;BME280;51042;49.696;10.808;2023-05-29T05:25:54;98673.13;;;25.90;37.07
64080;BME280;51042;49.696;10.808;2023-05-29T05:28:20;98663.44;;;26.55;35.48
64080;BME280;51042;49.696;10.808;2023-05-29T05:30:45;98673.53;;;26.63;35.34
64080;BME280;51042;49.696;10.808;2023-05-29T05:33:11;98679.66;;;25.98;36.17
64080;BME280;51042;49.696;10.808;2023-05-29T05:35:36;98674.78;;;25.42;37.18
64080;BME280;51042;49.696;10.808;2023-05-29T05:38:02;98680.66;;;25.82;36.96
64080;BME280;51042;49.696;10.808;2023-05-29T05:40:27;98679.00;;;25.73;36.88
64080;BME280;51042;49.696;10.808;2023-05-29T05:42:53;98679.72;;;26.75;35.97
64080;BME280;51042;49.696;10.808;2023-05-29T05:45:18;98670.78;;;26.90;34.82
64080;BME280;51042;49.696;10.808;2023-05-29T05:47:43;98675.63;;;26.89;35.50
64080;BME280;51042;49.696;10.808;2023-05-29T05:50:09;98687.47;;;27.14;35.09
64080;BME280;51042;49.696;10.808;2023-05-29T05:52:34;98685.28;;;26.49;35.93
64080;BME280;51042;49.696;10.808;2023-05-29T05:55:00;98691.44;;;26.15;36.21
64080;BME280;51042;49.696;10.808;2023-05-29T05:57:25;98699.78;;;26.21;36.53
64080;BME280;51042;49.696;10.808;2023-05-29T05:59:51;98688.91;;;26.62;36.40
64080;BME280;51042;49.696;10.808;2023-05-29T06:02:17;98688.31;;;27.48;34.92
64080;BME280;51042;49.696;10.808;2023-05-29T06:04:42;98691.66;;;27.73;34.28
64080;BME280;51042;49.696;10.808;2023-05-29T06:07:08;98697.22;;;27.39;34.55
64080;BME280;51042;49.696;10.808;2023-05-29T06:09:33;98695.41;;;27.29;35.28
64080;BME280;51042;49.696;10.808;2023-05-29T06:11:59;98691.88;;;27.75;35.33
64080;BME280;51042;49.696;10.808;2023-05-29T06:14:25;98699.59;;;27.09;35.28
64080;BME280;51042;49.696;10.808;2023-05-29T06:16:50;98698.44;;;26.27;37.79
64080;BME280;51042;49.696;10.808;2023-05-29T06:19:15;98694.13;;;26.85;37.16
64080;BME280;51042;49.696;10.808;2023-05-29T06:21:41;98689.59;;;27.47;36.28
64080;BME280;51042;49.696;10.808;2023-05-29T06:24:06;98688.44;;;27.69;36.24
64080;BME280;51042;49.696;10.808;2023-05-29T06:26:31;98690.84;;;28.54;34.48
64080;BME280;51042;49.696;10.808;2023-05-29T06:28:57;98694.97;;;28.32;34.36
64080;BME280;51042;49.696;10.808;2023-05-29T06:31:22;98694.31;;;27.58;35.22
64080;BME280;51042;49.696;10.808;2023-05-29T06:33:47;98698.34;;;26.33;35.79
64080;BME280;51042;49.696;10.808;2023-05-29T06:36:13;98696.16;;;26.26;36.62
64080;BME280;51042;49.696;10.808;2023-05-29T06:38:38;98693.25;;;26.31;36.28
64080;BME280;51042;49.696;10.808;2023-05-29T06:41:03;98698.00;;;25.67;37.73
64080;BME280;51042;49.696;10.808;2023-05-29T06:43:29;98701.88;;;24.61;38.70
64080;BME280;51042;49.696;10.808;2023-05-29T06:45:54;98702.66;;;23.22;40.51
64080;BME280;51042;49.696;10.808;2023-05-29T06:48:20;98701.56;;;21.64;43.91
64080;BME280;51042;49.696;10.808;2023-05-29T06:50:47;98705.91;;;20.79;45.43
64080;BME280;51042;49.696;10.808;2023-05-29T06:53:12;98700.38;;;20.22;47.26
64080;BME280;51042;49.696;10.808;2023-05-29T06:55:38;98709.75;;;20.19;48.17
64080;BME280;51042;49.696;10.808;2023-05-29T06:58:05;98709.47;;;20.17;48.11
64080;BME280;51042;49.696;10.808;2023-05-29T07:00:30;98715.66;;;20.01;48.03
64080;BME280;51042;49.696;10.808;2023-05-29T07:02:56;98707.31;;;19.81;48.51
64080;BME280;51042;49.696;10.808;2023-05-29T07:05:21;98708.75;;;19.50;48.21
64080;BME280;51042;49.696;10.808;2023-05-29T07:07:46;98703.72;;;19.34;48.57
64080;BME280;51042;49.696;10.808;2023-05-29T07:10:11;98705.53;;;19.17;49.57
64080;BME280;51042;49.696;10.808;2023-05-29T07:12:37;98712.75;;;19.29;48.92
64080;BME280;51042;49.696;10.808;2023-05-29T07:15:02;98711.38;;;19.39;47.81
64080;BME280;51042;49.696;10.808;2023-05-29T07:17:27;98698.44;;;19.36;47.17
64080;BME280;51042;49.696;10.808;2023-05-29T07:19:53;98701.94;;;19.51;47.34
64080;BME280;51042;49.696;10.808;2023-05-29T07:22:19;98701.28;;;19.42;46.42
64080;BME280;51042;49.696;10.808;2023-05-29T07:24:45;98698.63;;;19.33;46.18
64080;BME280;51042;49.696;10.808;2023-05-29T07:27:10;98706.28;;;19.38;47.58
64080;BME280;51042;49.696;10.808;2023-05-29T07:29:35;98711.22;;;19.69;47.36
64080;BME280;51042;49.696;10.808;2023-05-29T07:32:01;98702.34;;;19.90;47.81
64080;BME280;51042;49.696;10.808;2023-05-29T07:34:27;98707.66;;;19.88;47.61
64080;BME280;51042;49.696;10.808;2023-05-29T07:36:56;98711.31;;;20.00;46.83
64080;BME280;51042;49.696;10.808;2023-05-29T07:39:25;98715.38;;;20.25;46.91
64080;BME280;51042;49.696;10.808;2023-05-29T07:41:51;98718.38;;;20.47;46.25
64080;BME280;51042;49.696;10.808;2023-05-29T07:44:17;98705.59;;;20.35;47.29
64080;BME280;51042;49.696;10.808;2023-05-29T07:46:43;98704.22;;;20.56;47.29
64080;BME280;51042;49.696;10.808;2023-05-29T07:49:08;98705.69;;;20.77;46.99
64080;BME280;51042;49.696;10.808;2023-05-29T07:51:33;98717.56;;;20.72;45.76
64080;BME280;51042;49.696;10.808;2023-05-29T07:53:59;98707.78;;;20.57;46.10
64080;BME280;51042;49.696;10.808;2023-05-29T07:56:24;98710.53;;;20.83;45.60
64080;BME280;51042;49.696;10.808;2023-05-29T07:58:50;98715.72;;;21.01;46.44
64080;BME280;51042;49.696;10.808;2023-05-29T08:01:18;98714.88;;;21.26;44.48
64080;BME280;51042;49.696;10.808;2023-05-29T08:03:44;98713.38;;;21.31;44.99
64080;BME280;51042;49.696;10.808;2023-05-29T08:06:09;98719.91;;;21.22;44.13
64080;BME280;51042;49.696;10.808;2023-05-29T08:08:34;98719.66;;;21.20;44.69
64080;BME280;51042;49.696;10.808;2023-05-29T08:10:59;98712.13;;;21.37;44.91
64080;BME280;51042;49.696;10.808;2023-05-29T08:13:25;98715.22;;;21.45;44.16
64080;BME280;51042;49.696;10.808;2023-05-29T08:15:50;98709.41;;;21.54;45.12
64080;BME280;51042;49.696;10.808;2023-05-29T08:18:16;98710.09;;;21.32;39.29
64080;BME280;51042;49.696;10.808;2023-05-29T08:20:41;98700.66;;;21.24;40.31
64080;BME280;51042;49.696;10.808;2023-05-29T08:23:07;98704.88;;;21.14;40.78
64080;BME280;51042;49.696;10.808;2023-05-29T08:25:33;98703.56;;;21.57;41.58
64080;BME280;51042;49.696;10.808;2023-05-29T08:27:58;98703.66;;;21.80;41.02
64080;BME280;51042;49.696;10.808;2023-05-29T08:30:23;98707.72;;;21.84;40.47
64080;BME280;51042;49.696;10.808;2023-05-29T08:32:49;98705.28;;;22.14;41.22
64080;BME280;51042;49.696;10.808;2023-05-29T08:35:15;98706.56;;;22.30;40.16
64080;BME280;51042;49.696;10.808;2023-05-29T08:37:41;98701.97;;;22.16;39.46
64080;BME280;51042;49.696;10.808;2023-05-29T08:40:06;98700.84;;;21.69;39.29
64080;BME280;51042;49.696;10.808;2023-05-29T08:42:35;98692.94;;;21.67;39.30
64080;BME280;51042;49.696;10.808;2023-05-29T08:45:04;98691.25;;;21.92;40.96
64080;BME280;51042;49.696;10.808;2023-05-29T08:47:33;98693.50;;;21.88;39.48
64080;BME280;51042;49.696;10.808;2023-05-29T08:50:00;98690.47;;;21.91;39.60
64080;BME280;51042;49.696;10.808;2023-05-29T08:52:26;98690.31;;;22.28;41.14
64080;BME280;51042;49.696;10.808;2023-05-29T08:54:54;98693.59;;;22.60;40.96
64080;BME280;51042;49.696;10.808;2023-05-29T08:57:21;98688.50;;;22.70;40.32
64080;BME280;51042;49.696;10.808;2023-05-29T08:59:47;98682.88;;;22.98;41.20
64080;BME280;51042;49.696;10.808;2023-05-29T09:02:17;98677.00;;;23.01;39.63
64080;BME280;51042;49.696;10.808;2023-05-29T09:04:42;98678.09;;;22.82;38.60
64080;BME280;51042;49.696;10.808;2023-05-29T09:07:13;98681.63;;;22.54;38.83
64080;BME280;51042;49.696;10.808;2023-05-29T09:09:40;98682.69;;;22.40;39.45
64080;BME280;51042;49.696;10.808;2023-05-29T09:12:05;98671.19;;;22.60;38.71
64080;BME280;51042;49.696;10.808;2023-05-29T09:14:36;98668.56;;;23.12;37.75
64080;BME280;51042;49.696;10.808;2023-05-29T09:17:03;98679.31;;;22.92;37.47
64080;BME280;51042;49.696;10.808;2023-05-29T09:19:30;98679.75;;;23.18;36.54
64080;BME280;51042;49.696;10.808;2023-05-29T09:22:06;98681.44;;;23.43;34.71
64080;BME280;51042;49.696;10.808;2023-05-29T09:24:33;98675.19;;;23.15;35.34
64080;BME280;51042;49.696;10.808;2023-05-29T09:26:59;98672.19;;;22.91;35.80
64080;BME280;51042;49.696;10.808;2023-05-29T09:29:26;98681.13;;;22.67;36.31
64080;BME280;51042;49.696;10.808;2023-05-29T09:31:52;98690.75;;;23.05;36.45
64080;BME280;51042;49.696;10.808;2023-05-29T09:34:17;98693.19;;;23.47;35.71
64080;BME280;51042;49.696;10.808;2023-05-29T09:36:42;98681.28;;;23.82;34.81
64080;BME280;51042;49.696;10.808;2023-05-29T09:39:08;98698.16;;;23.66;35.19
64080;BME280;51042;49.696;10.808;2023-05-29T09:41:41;98683.78;;;23.34;35.56
64080;BME280;51042;49.696;10.808;2023-05-29T09:44:07;98693.38;;;23.55;35.17
64080;BME280;51042;49.696;10.808;2023-05-29T09:46:35;98683.47;;;23.43;35.66
64080;BME280;51042;49.696;10.808;2023-05-29T09:49:01;98685.19;;;23.68;35.19
64080;BME280;51042;49.696;10.808;2023-05-29T09:51:28;98690.03;;;23.62;36.36
64080;BME280;51042;49.696;10.808;2023-05-29T09:53:55;98687.41;;;23.81;34.57
64080;BME280;51042;49.696;10.808;2023-05-29T09:56:25;98683.50;;;23.95;35.53
64080;BME280;51042;49.696;10.808;2023-05-29T09:58:53;98688.06;;;23.46;35.13
64080;BME280;51042;49.696;10.808;2023-05-29T10:01:21;98685.56;;;23.31;35.94
64080;BME280;51042;49.696;10.808;2023-05-29T10:03:47;98684.84;;;23.83;35.11
64080;BME280;51042;49.696;10.808;2023-05-29T10:06:15;98677.47;;;24.21;34.49
64080;BME280;51042;49.696;10.808;2023-05-29T10:08:45;98686.97;;;23.71;34.65
64080;BME280;51042;49.696;10.808;2023-05-29T10:11:14;98690.25;;;23.75;36.44
64080;BME280;51042;49.696;10.808;2023-05-29T10:13:49;98689.31;;;24.38;34.13
64080;BME280;51042;49.696;10.808;2023-05-29T10:16:17;98691.03;;;24.76;34.07
64080;BME280;51042;49.696;10.808;2023-05-29T10:18:47;98689.38;;;24.92;33.34
64080;BME280;51042;49.696;10.808;2023-05-29T10:21:19;98677.72;;;24.53;33.35
64080;BME280;51042;49.696;10.808;2023-05-29T10:23:47;98688.44;;;24.54;33.40
64080;BME280;51042;49.696;10.808;2023-05-29T10:26:36;98673.31;;;24.63;32.88
64080;BME280;51042;49.696;10.808;2023-05-29T10:37:52;98677.00;;;24.76;33.34
64080;BME280;51042;49.696;10.808;2023-05-29T10:40:23;98666.41;;;24.34;32.45
64080;BME280;51042;49.696;10.808;2023-05-29T10:42:50;98659.88;;;24.20;31.85
64080;BME280;51042;49.696;10.808;2023-05-29T10:53:08;98670.28;;;24.55;32.51
64080;BME280;51042;49.696;10.808;2023-05-29T10:55:48;98665.09;;;24.95;33.48
64080;BME280;51042;49.696;10.808;2023-05-29T10:58:17;98655.31;;;25.26;32.15
64080;BME280;51042;49.696;10.808;2023-05-29T11:00:44;98662.44;;;25.45;32.16
64080;BME280;51042;49.696;10.808;2023-05-29T11:03:19;98650.16;;;25.30;31.70
64080;BME280;51042;49.696;10.808;2023-05-29T11:08:36;98651.94;;;25.70;33.46
64080;BME280;51042;49.696;10.808;2023-05-29T11:11:11;98654.09;;;26.15;31.02
64080;BME280;51042;49.696;10.808;2023-05-29T11:13:37;98656.53;;;26.05;31.93
64080;BME280;51042;49.696;10.808;2023-05-29T11:18:31;98663.97;;;26.21;30.64
64080;BME280;51042;49.696;10.808;2023-05-29T11:21:00;98660.63;;;26.04;30.69
64080;BME280;51042;49.696;10.808;2023-05-29T11:23:35;98651.31;;;25.77;29.94
64080;BME280;51042;49.696;10.808;2023-05-29T11:26:06;98652.38;;;25.55;30.34
64080;BME280;51042;49.696;10.808;2023-05-29T11:28:32;98649.94;;;25.46;31.65
64080;BME280;51042;49.696;10.808;2023-05-29T11:30:58;98655.19;;;25.55;31.37
64080;BME280;51042;49.696;10.808;2023-05-29T11:33:26;98655.59;;;25.65;31.12
64080;BME280;51042;49.696;10.808;2023-05-29T11:35:59;98647.00;;;25.14;30.07
64080;BME280;51042;49.696;10.808;2023-05-29T11:38:25;98650.31;;;25.37;31.90
64080;BME280;51042;49.696;10.808;2023-05-29T11:40:53;98651.81;;;26.13;30.49
64080;BME280;51042;49.696;10.808;2023-05-29T11:43:19;98633.16;;;26.87;31.63
64080;BME280;51042;49.696;10.808;2023-05-29T11:45:44;98635.00;;;26.85;30.01
64080;BME280;51042;49.696;10.808;2023-05-29T11:48:10;98645.25;;;26.56;30.15
64080;BME280;51042;49.696;10.808;2023-05-29T11:50:35;98639.78;;;26.13;28.74
64080;BME280;51042;49.696;10.808;2023-05-29T11:53:01;98637.72;;;25.63;29.60
64080;BME280;51042;49.696;10.808;2023-05-29T11:55:27;98652.44;;;25.50;30.84
64080;BME280;51042;49.696;10.808;2023-05-29T11:57:56;98663.63;;;25.93;29.89
64080;BME280;51042;49.696;10.808;2023-05-29T12:00:24;98641.94;;;26.25;30.11
64080;BME280;51042;49.696;10.808;2023-05-29T12:02:50;98641.63;;;26.10;29.62
64080;BME280;51042;49.696;10.808;2023-05-29T12:05:17;98639.94;;;26.20;29.21
64080;BME280;51042;49.696;10.808;2023-05-29T12:07:55;98635.72;;;26.59;29.19
64080;BME280;51042;49.696;10.808;2023-05-29T12:10:26;98647.66;;;26.78;28.51
64080;BME280;51042;49.696;10.808;2023-05-29T12:12:52;98641.69;;;26.68;27.81
64080;BME280;51042;49.696;10.808;2023-05-29T12:15:18;98638.53;;;25.95;28.75
64080;BME280;51042;49.696;10.808;2023-05-29T12:17:44;98636.75;;;25.79;29.55
64080;BME280;51042;49.696;10.808;2023-05-29T12:20:11;98630.53;;;25.67;30.16
64080;BME280;51042;49.696;10.808;2023-05-29T12:22:38;98642.16;;;25.34;28.93
64080;BME280;51042;49.696;10.808;2023-05-29T12:25:09;98643.19;;;25.55;30.74
64080;BME280;51042;49.696;10.808;2023-05-29T12:27:40;98627.50;;;26.61;28.24
64080;BME280;51042;49.696;10.808;2023-05-29T12:30:08;98635.56;;;26.38;28.22
64080;BME280;51042;49.696;10.808;2023-05-29T12:32:43;98637.94;;;26.92;28.09
64080;BME280;51042;49.696;10.808;2023-05-29T12:37:35;98627.47;;;25.65;28.46
64080;BME280;51042;49.696;10.808;2023-05-29T12:40:20;98624.16;;;25.98;30.99
64080;BME280;51042;49.696;10.808;2023-05-29T12:42:47;98631.09;;;26.74;28.92
64080;BME280;51042;49.696;10.808;2023-05-29T12:45:14;98627.44;;;26.93;27.48
64080;BME280;51042;49.696;10.808;2023-05-29T12:47:52;98624.09;;;26.36;27.47
64080;BME280;51042;49.696;10.808;2023-05-29T12:50:19;98619.38;;;25.93;28.31
64080;BME280;51042;49.696;10.808;2023-05-29T12:53:03;98615.41;;;26.02;29.91
64080;BME280;51042;49.696;10.808;2023-05-29T12:55:36;98609.94;;;27.47;28.47
64080;BME280;51042;49.696;10.808;2023-05-29T12:58:05;98616.97;;;28.08;26.87
64080;BME280;51042;49.696;10.808;2023-05-29T13:00:33;98619.34;;;27.49;26.12
64080;BME280;51042;49.696;10.808;2023-05-29T13:02:58;98613.66;;;26.63;27.71
64080;BME280;51042;49.696;10.808;2023-05-29T13:05:24;98617.13;;;26.95;27.88
64080;BME280;51042;49.696;10.808;2023-05-29T13:07:50;98614.50;;;27.23;27.07
64080;BME280;51042;49.696;10.808;2023-05-29T13:10:16;98611.56;;;27.55;26.08
64080;BME280;51042;49.696;10.808;2023-05-29T13:12:42;98610.34;;;27.64;26.92